sensor_id;sensor_type;location;lat;lon;timestamp;temperature;humidity
48376;DHT22;34178;50.904;11.560;2022-12-18T00:02:06;-10.70;99.90
48376;DHT22;34178;50.904;11.560;2022-12-18T00:04:32;-10.80;99.90
48376;DHT22;34178;50.904;11.560;2022-12-18T00:06:58;-10.80;99.90
48376;DHT22;34178;50.904;11.560;2022-12-18T00:09:24;-10.70;99.90
48376;DHT22;34178;50.904;11.560;2022-12-18T00:11:50;-10.80;99.90
48376;DHT22;34178;50.904;11.560;2022-12-18T00:14:15;-10.90;99.90
48376;DHT22;34178;50.904;11.560;2022-12-18T00:16:44;-10.90;99.90
48376;DHT22;34178;50.904;11.560;2022-12-18T00:19:10;-10.90;99.90
48376;DHT22;34178;50.904;11.560;2022-12-18T00:21:36;-10.90;99.90
48376;DHT22;34178;50.904;11.560;2022-12-18T00:24:07;-10.90;99.90
48376;DHT22;34178;50.904;11.560;2022-12-18T00:26:35;-10.90;99.90
48376;DHT22;34178;50.904;11.560;2022-12-18T00:29:03;-10.90;99.90
48376;DHT22;34178;50.904;11.560;2022-12-18T00:31:30;-10.90;99.90
48376;DHT22;34178;50.904;11.560;2022-12-18T00:33:57;-10.90;99.90
48376;DHT22;34178;50.904;11.560;2022-12-18T00:36:28;-10.90;99.90
48376;DHT22;34178;50.904;11.560;2022-12-18T00:38:55;-11.00;99.90
48376;DHT22;34178;50.904;11.560;2022-12-18T00:41:21;-11.00;99.90
48376;DHT22;34178;50.904;11.560;2022-12-18T00:44:08;-11.00;99.90
48376;DHT22;34178;50.904;11.560;2022-12-18T00:46:34;-11.00;99.90
48376;DHT22;34178;50.904;11.560;2022-12-18T00:49:00;-11.00;99.90
48376;DHT22;34178;50.904;11.560;2022-12-18T00:51:26;-11.00;99.90
48376;DHT22;34178;50.904;11.560;2022-12-18T00:53:52;-11.00;99.90
48376;DHT22;34178;50.904;11.560;2022-12-18T00:56:21;-11.10;99.90
48376;DHT22;34178;50.904;11.560;2022-12-18T00:58:47;-11.00;99.90
48376;DHT22;34178;50.904;11.560;2022-12-18T01:01:14;-11.10;99.90
48376;DHT22;34178;50.904;11.560;2022-12-18T01:03:39;-11.10;99.90
48376;DHT22;34178;50.904;11.560;2022-12-18T01:06:10;-11.10;99.90
48376;DHT22;34178;50.904;11.560;2022-12-18T01:08:37;-11.20;99.90
48376;DHT22;34178;50.904;11.560;2022-12-18T01:11:15;-11.20;99.90
48376;DHT22;34178;50.904;11.560;2022-12-18T01:13:42;-11.10;99.90
48376;DHT22;34178;50.904;11.560;2022-12-18T01:16:08;-11.20;99.90
48376;DHT22;34178;50.904;11.560;2022-12-18T01:18:34;-11.20;99.90
48376;DHT22;34178;50.904;11.560;2022-12-18T01:21:00;-11.30;99.90
48376;DHT22;34178;50.904;11.560;2022-12-18T01:23:26;-11.30;99.90
48376;DHT22;34178;50.904;11.560;2022-12-18T01:25:52;-11.30;99.90
48376;DHT22;34178;50.904;11.560;2022-12-18T01:28:18;-11.30;99.90
48376;DHT22;34178;50.904;11.560;2022-12-18T01:30:43;-11.30;99.90
48376;DHT22;34178;50.904;11.560;2022-12-18T01:33:09;-11.30;99.90
48376;DHT22;34178;50.904;11.560;2022-12-18T01:35:42;-11.30;99.90
48376;DHT22;34178;50.904;11.560;2022-12-18T01:38:08;-11.30;99.90
48376;DHT22;34178;50.904;11.560;2022-12-18T01:40:34;-11.30;99.90
48376;DHT22;34178;50.904;11.560;2022-12-18T01:43:00;-11.40;99.90
48376;DHT22;34178;50.904;11.560;2022-12-18T01:45:31;-11.50;99.90
48376;DHT22;34178;50.904;11.560;2022-12-18T01:48:06;-11.50;99.90
48376;DHT22;34178;50.904;11.560;2022-12-18T01:50:36;-11.40;99.90
48376;DHT22;34178;50.904;11.560;2022-12-18T01:53:15;-11.40;99.90
48376;DHT22;34178;50.904;11.560;2022-12-18T01:56:02;-11.50;99.90
48376;DHT22;34178;50.904;11.560;2022-12-18T01:58:51;-11.50;99.90
48376;DHT22;34178;50.904;11.560;2022-12-18T02:01:21;-11.50;99.90
48376;DHT22;34178;50.904;11.560;2022-12-18T02:03:48;-11.50;99.90
48376;DHT22;34178;50.904;11.560;2022-12-18T02:06:27;-11.50;99.90
48376;DHT22;34178;50.904;11.560;2022-12-18T02:09:17;-11.50;99.90
48376;DHT22;34178;50.904;11.560;2022-12-18T02:12:08;-11.50;99.90
48376;DHT22;34178;50.904;11.560;2022-12-18T02:17:07;-11.50;99.90
48376;DHT22;34178;50.904;11.560;2022-12-18T02:27:45;-11.60;99.90
48376;DHT22;34178;50.904;11.560;2022-12-18T02:30:12;-11.50;99.90
48376;DHT22;34178;50.904;11.560;2022-12-18T02:32:41;-11.60;99.90
48376;DHT22;34178;50.904;11.560;2022-12-18T02:35:14;-11.50;99.90
48376;DHT22;34178;50.904;11.560;2022-12-18T02:37:42;-11.50;99.90
48376;DHT22;34178;50.904;11.560;2022-12-18T02:40:11;-11.50;99.90
48376;DHT22;34178;50.904;11.560;2022-12-18T02:42:37;-11.50;99.90
48376;DHT22;34178;50.904;11.560;2022-12-18T02:45:03;-11.60;99.90
48376;DHT22;34178;50.904;11.560;2022-12-18T02:47:32;-11.60;99.90
48376;DHT22;34178;50.904;11.560;2022-12-18T02:50:05;-11.60;99.90
48376;DHT22;34178;50.904;11.560;2022-12-18T03:03:54;-11.80;99.90
48376;DHT22;34178;50.904;11.560;2022-12-18T03:07:00;-11.80;99.90
48376;DHT22;34178;50.904;11.560;2022-12-18T03:09:48;-11.80;99.90
48376;DHT22;34178;50.904;11.560;2022-12-18T03:12:28;-11.80;99.90
48376;DHT22;34178;50.904;11.560;2022-12-18T03:15:18;-11.80;99.90
48376;DHT22;34178;50.904;11.560;2022-12-18T03:17:59;-11.80;99.90
48376;DHT22;34178;50.904;11.560;2022-12-18T03:20:29;-11.90;99.90
48376;DHT22;34178;50.904;11.560;2022-12-18T03:23:07;-11.90;99.90
48376;DHT22;34178;50.904;11.560;2022-12-18T03:25:37;-11.90;99.90
48376;DHT22;34178;50.904;11.560;2022-12-18T03:28:04;-11.90;99.90
48376;DHT22;34178;50.904;11.560;2022-12-18T03:30:32;-11.90;99.90
48376;DHT22;34178;50.904;11.560;2022-12-18T03:33:18;-11.90;99.90
48376;DHT22;34178;50.904;11.560;2022-12-18T03:35:47;-11.90;99.90
48376;DHT22;34178;50.904;11.560;2022-12-18T03:38:13;-11.90;99.90
48376;DHT22;34178;50.904;11.560;2022-12-18T03:41:06;-11.90;99.90
48376;DHT22;34178;50.904;11.560;2022-12-18T03:43:35;-11.90;99.90
48376;DHT22;34178;50.904;11.560;2022-12-18T03:46:33;-11.80;99.90
48376;DHT22;34178;50.904;11.560;2022-12-18T03:49:11;-11.90;99.90
48376;DHT22;34178;50.904;11.560;2022-12-18T03:51:52;-11.90;99.90
48376;DHT22;34178;50.904;11.560;2022-12-18T03:54:20;-12.00;99.90
48376;DHT22;34178;50.904;11.560;2022-12-18T03:56:58;-12.00;99.90
48376;DHT22;34178;50.904;11.560;2022-12-18T03:59:26;-12.00;99.90
48376;DHT22;34178;50.904;11.560;2022-12-18T04:01:54;-12.00;99.90
48376;DHT22;34178;50.904;11.560;2022-12-18T04:04:21;-12.00;99.90
48376;DHT22;34178;50.904;11.560;2022-12-18T04:06:49;-12.00;99.90
48376;DHT22;34178;50.904;11.560;2022-12-18T04:09:16;-12.00;99.90
48376;DHT22;34178;50.904;11.560;2022-12-18T04:11:42;-12.10;99.90
48376;DHT22;34178;50.904;11.560;2022-12-18T04:14:09;-12.10;99.90
48376;DHT22;34178;50.904;11.560;2022-12-18T04:16:35;-12.10;99.90
48376;DHT22;34178;50.904;11.560;2022-12-18T04:31:27;-12.20;99.90
48376;DHT22;34178;50.904;11.560;2022-12-18T04:33:53;-12.20;99.90
48376;DHT22;34178;50.904;11.560;2022-12-18T04:36:19;-12.20;99.90
48376;DHT22;34178;50.904;11.560;2022-12-18T04:38:44;-12.30;99.90
48376;DHT22;34178;50.904;11.560;2022-12-18T04:43:40;-12.30;99.90
48376;DHT22;34178;50.904;11.560;2022-12-18T04:46:07;-12.30;99.90
48376;DHT22;34178;50.904;11.560;2022-12-18T04:48:34;-12.30;99.90
48376;DHT22;34178;50.904;11.560;2022-12-18T04:50:59;-12.30;99.90
48376;DHT22;34178;50.904;11.560;2022-12-18T04:53:25;-12.30;99.90
48376;DHT22;34178;50.904;11.560;2022-12-18T04:56:11;-12.40;99.90
48376;DHT22;34178;50.904;11.560;2022-12-18T04:58:39;-12.40;99.90
48376;DHT22;34178;50.904;11.560;2022-12-18T05:01:05;-12.40;99.90
48376;DHT22;34178;50.904;11.560;2022-12-18T05:03:33;-12.40;99.90
48376;DHT22;34178;50.904;11.560;2022-12-18T05:05:59;-12.40;99.90
48376;DHT22;34178;50.904;11.560;2022-12-18T05:08:25;-12.40;99.90
48376;DHT22;34178;50.904;11.560;2022-12-18T05:11:11;-12.40;99.90
48376;DHT22;34178;50.904;11.560;2022-12-18T05:13:37;-12.50;99.90
48376;DHT22;34178;50.904;11.560;2022-12-18T05:16:04;-12.60;99.90
48376;DHT22;34178;50.904;11.560;2022-12-18T05:18:30;-12.50;99.90
48376;DHT22;34178;50.904;11.560;2022-12-18T05:20:56;-12.50;99.90
48376;DHT22;34178;50.904;11.560;2022-12-18T05:23:23;-12.50;99.90
48376;DHT22;34178;50.904;11.560;2022-12-18T05:26:00;-12.50;99.90
48376;DHT22;34178;50.904;11.560;2022-12-18T05:28:28;-12.50;99.90
48376;DHT22;34178;50.904;11.560;2022-12-18T05:30:58;-12.50;99.90
48376;DHT22;34178;50.904;11.560;2022-12-18T05:33:26;-12.50;99.90
48376;DHT22;34178;50.904;11.560;2022-12-18T05:35:58;-12.50;99.90
48376;DHT22;34178;50.904;11.560;2022-12-18T05:38:40;-12.50;99.90
48376;DHT22;34178;50.904;11.560;2022-12-18T05:41:07;-12.50;99.90
48376;DHT22;34178;50.904;11.560;2022-12-18T05:43:35;-12.50;99.90
48376;DHT22;34178;50.904;11.560;2022-12-18T05:46:11;-12.60;99.90
48376;DHT22;34178;50.904;11.560;2022-12-18T05:48:37;-12.60;99.90
48376;DHT22;34178;50.904;11.560;2022-12-18T05:51:05;-12.60;99.90
48376;DHT22;34178;50.904;11.560;2022-12-18T05:53:31;-12.70;99.90
48376;DHT22;34178;50.904;11.560;2022-12-18T05:56:00;-12.60;99.90
48376;DHT22;34178;50.904;11.560;2022-12-18T05:58:27;-12.60;99.90
48376;DHT22;34178;50.904;11.560;2022-12-18T06:00:52;-12.60;99.90
48376;DHT22;34178;50.904;11.560;2022-12-18T06:03:18;-12.70;99.90
48376;DHT22;34178;50.904;11.560;2022-12-18T06:05:44;-12.60;99.90
48376;DHT22;34178;50.904;11.560;2022-12-18T06:08:12;-12.50;99.90
48376;DHT22;34178;50.904;11.560;2022-12-18T06:10:38;-12.50;99.90
48376;DHT22;34178;50.904;11.560;2022-12-18T06:13:04;-12.60;99.90
48376;DHT22;34178;50.904;11.560;2022-12-18T06:15:30;-12.60;99.90
48376;DHT22;34178;50.904;11.560;2022-12-18T06:17:56;-12.70;99.90
48376;DHT22;34178;50.904;11.560;2022-12-18T06:20:21;-12.70;99.90
48376;DHT22;34178;50.904;11.560;2022-12-18T06:22:47;-12.60;99.90
48376;DHT22;34178;50.904;11.560;2022-12-18T06:25:13;-12.60;99.90
48376;DHT22;34178;50.904;11.560;2022-12-18T06:27:38;-12.60;99.90
48376;DHT22;34178;50.904;11.560;2022-12-18T06:30:05;-12.70;99.90
48376;DHT22;34178;50.904;11.560;2022-12-18T06:32:31;-12.80;99.90
48376;DHT22;34178;50.904;11.560;2022-12-18T06:34:56;-12.80;99.90
48376;DHT22;34178;50.904;11.560;2022-12-18T06:37:23;-12.80;99.90
48376;DHT22;34178;50.904;11.560;2022-12-18T06:39:52;-12.80;99.90
48376;DHT22;34178;50.904;11.560;2022-12-18T06:42:17;-12.80;99.90
48376;DHT22;34178;50.904;11.560;2022-12-18T06:44:43;-12.80;99.90
48376;DHT22;34178;50.904;11.560;2022-12-18T06:47:09;-12.80;99.90
48376;DHT22;34178;50.904;11.560;2022-12-18T06:49:34;-12.70;99.90
48376;DHT22;34178;50.904;11.560;2022-12-18T06:52:00;-12.70;99.90
48376;DHT22;34178;50.904;11.560;2022-12-18T06:54:26;-12.70;99.90
48376;DHT22;34178;50.904;11.560;2022-12-18T06:56:51;-12.80;99.90
48376;DHT22;34178;50.904;11.560;2022-12-18T06:59:17;-12.80;99.90
48376;DHT22;34178;50.904;11.560;2022-12-18T07:01:43;-12.70;99.90
48376;DHT22;34178;50.904;11.560;2022-12-18T07:04:08;-12.70;99.90
48376;DHT22;34178;50.904;11.560;2022-12-18T07:06:34;-12.90;99.90
48376;DHT22;34178;50.904;11.560;2022-12-18T07:09:00;-13.00;99.90
48376;DHT22;34178;50.904;11.560;2022-12-18T07:11:25;-13.10;99.90
48376;DHT22;34178;50.904;11.560;2022-12-18T07:13:52;-13.00;99.90
48376;DHT22;34178;50.904;11.560;2022-12-18T07:16:19;-13.00;99.90
48376;DHT22;34178;50.904;11.560;2022-12-18T07:18:46;-12.90;99.90
48376;DHT22;34178;50.904;11.560;2022-12-18T07:21:14;-12.80;99.90
48376;DHT22;34178;50.904;11.560;2022-12-18T07:23:40;-12.80;99.90
48376;DHT22;34178;50.904;11.560;2022-12-18T07:26:08;-12.80;99.90
48376;DHT22;34178;50.904;11.560;2022-12-18T07:28:35;-12.80;99.90
48376;DHT22;34178;50.904;11.560;2022-12-18T07:31:09;-12.80;99.90
48376;DHT22;34178;50.904;11.560;2022-12-18T07:33:35;-12.80;99.90
48376;DHT22;34178;50.904;11.560;2022-12-18T07:36:02;-12.80;99.90
48376;DHT22;34178;50.904;11.560;2022-12-18T07:38:29;-12.90;99.90
48376;DHT22;34178;50.904;11.560;2022-12-18T07:41:00;-13.00;99.90
48376;DHT22;34178;50.904;11.560;2022-12-18T07:43:25;-13.10;99.90
48376;DHT22;34178;50.904;11.560;2022-12-18T07:45:51;-13.00;99.90
48376;DHT22;34178;50.904;11.560;2022-12-18T07:48:17;-12.90;99.90
48376;DHT22;34178;50.904;11.560;2022-12-18T07:50:42;-12.80;99.90
48376;DHT22;34178;50.904;11.560;2022-12-18T07:53:08;-12.80;99.90
48376;DHT22;34178;50.904;11.560;2022-12-18T07:55:34;-12.70;99.90
48376;DHT22;34178;50.904;11.560;2022-12-18T07:58:03;-12.70;99.90
48376;DHT22;34178;50.904;11.560;2022-12-18T08:00:30;-12.70;99.90
48376;DHT22;34178;50.904;11.560;2022-12-18T08:02:55;-12.70;99.90
48376;DHT22;34178;50.904;11.560;2022-12-18T08:05:21;-12.70;99.90
48376;DHT22;34178;50.904;11.560;2022-12-18T08:07:47;-12.60;99.90
48376;DHT22;34178;50.904;11.560;2022-12-18T08:10:13;-12.60;99.90
48376;DHT22;34178;50.904;11.560;2022-12-18T08:12:39;-12.50;99.90
48376;DHT22;34178;50.904;11.560;2022-12-18T08:15:05;-12.50;99.90
48376;DHT22;34178;50.904;11.560;2022-12-18T08:17:31;-12.50;99.90
48376;DHT22;34178;50.904;11.560;2022-12-18T08:19:57;-12.40;99.90
48376;DHT22;34178;50.904;11.560;2022-12-18T08:22:23;-12.40;99.90
48376;DHT22;34178;50.904;11.560;2022-12-18T08:24:48;-12.30;99.90
48376;DHT22;34178;50.904;11.560;2022-12-18T08:27:14;-12.20;99.90
48376;DHT22;34178;50.904;11.560;2022-12-18T08:29:40;-12.10;99.90
48376;DHT22;34178;50.904;11.560;2022-12-18T08:32:05;-12.00;99.90
48376;DHT22;34178;50.904;11.560;2022-12-18T08:34:31;-12.10;99.90
48376;DHT22;34178;50.904;11.560;2022-12-18T08:36:57;-12.00;99.90
48376;DHT22;34178;50.904;11.560;2022-12-18T08:39:22;-12.00;99.90
48376;DHT22;34178;50.904;11.560;2022-12-18T08:41:48;-12.00;99.90
48376;DHT22;34178;50.904;11.560;2022-12-18T08:44:34;-12.00;99.90
48376;DHT22;34178;50.904;11.560;2022-12-18T08:47:03;-12.00;99.90
48376;DHT22;34178;50.904;11.560;2022-12-18T08:49:29;-11.90;99.90
48376;DHT22;34178;50.904;11.560;2022-12-18T08:51:55;-11.90;99.90
48376;DHT22;34178;50.904;11.560;2022-12-18T08:54:23;-11.90;99.90
48376;DHT22;34178;50.904;11.560;2022-12-18T08:56:49;-11.80;99.90
48376;DHT22;34178;50.904;11.560;2022-12-18T08:59:18;-11.70;99.90
48376;DHT22;34178;50.904;11.560;2022-12-18T09:01:44;-11.70;99.90
48376;DHT22;34178;50.904;11.560;2022-12-18T09:04:10;-11.70;99.90
48376;DHT22;34178;50.904;11.560;2022-12-18T09:06:37;-11.60;99.90
48376;DHT22;34178;50.904;11.560;2022-12-18T09:09:03;-11.70;99.90
48376;DHT22;34178;50.904;11.560;2022-12-18T09:11:30;-11.60;99.90
48376;DHT22;34178;50.904;11.560;2022-12-18T09:13:57;-11.60;99.90
48376;DHT22;34178;50.904;11.560;2022-12-18T09:16:25;-11.60;99.90
48376;DHT22;34178;50.904;11.560;2022-12-18T09:18:51;-11.60;99.90
48376;DHT22;34178;50.904;11.560;2022-12-18T09:21:20;-11.70;99.90
48376;DHT22;34178;50.904;11.560;2022-12-18T09:23:53;-11.70;99.90
48376;DHT22;34178;50.904;11.560;2022-12-18T09:26:19;-11.60;99.90
48376;DHT22;34178;50.904;11.560;2022-12-18T09:28:45;-11.60;99.90
48376;DHT22;34178;50.904;11.560;2022-12-18T09:31:12;-11.50;99.90
48376;DHT22;34178;50.904;11.560;2022-12-18T09:33:38;-11.40;99.90
48376;DHT22;34178;50.904;11.560;2022-12-18T09:36:05;-11.40;99.90
48376;DHT22;34178;50.904;11.560;2022-12-18T09:38:32;-11.30;99.90
48376;DHT22;34178;50.904;11.560;2022-12-18T09:41:03;-11.20;99.90
48376;DHT22;34178;50.904;11.560;2022-12-18T09:43:37;-11.20;99.90
48376;DHT22;34178;50.904;11.560;2022-12-18T09:46:09;-11.10;99.90
48376;DHT22;34178;50.904;11.560;2022-12-18T09:48:49;-11.10;99.90
48376;DHT22;34178;50.904;11.560;2022-12-18T09:51:24;-11.00;99.90
48376;DHT22;34178;50.904;11.560;2022-12-18T09:53:58;-10.90;99.90
48376;DHT22;34178;50.904;11.560;2022-12-18T09:56:25;-10.80;99.90
48376;DHT22;34178;50.904;11.560;2022-12-18T09:58:58;-10.80;99.90
48376;DHT22;34178;50.904;11.560;2022-12-18T10:01:24;-10.70;99.90
48376;DHT22;34178;50.904;11.560;2022-12-18T10:03:51;-10.60;99.90
48376;DHT22;34178;50.904;11.560;2022-12-18T10:12:02;-10.30;99.90
48376;DHT22;34178;50.904;11.560;2022-12-18T10:14:32;-10.20;99.90
48376;DHT22;34178;50.904;11.560;2022-12-18T10:17:10;-10.10;99.90
48376;DHT22;34178;50.904;11.560;2022-12-18T10:19:58;-10.00;99.90
48376;DHT22;34178;50.904;11.560;2022-12-18T10:27:34;-9.60;99.90
48376;DHT22;34178;50.904;11.560;2022-12-18T10:30:04;-9.40;99.90
48376;DHT22;34178;50.904;11.560;2022-12-18T10:32:30;-9.30;99.90
48376;DHT22;34178;50.904;11.560;2022-12-18T10:34:57;-9.20;99.90
48376;DHT22;34178;50.904;11.560;2022-12-18T10:37:29;-9.10;99.90
48376;DHT22;34178;50.904;11.560;2022-12-18T10:40:15;-8.90;99.90
48376;DHT22;34178;50.904;11.560;2022-12-18T10:42:41;-8.80;99.90
48376;DHT22;34178;50.904;11.560;2022-12-18T10:45:15;-8.70;99.90
48376;DHT22;34178;50.904;11.560;2022-12-18T10:47:45;-8.60;99.90
48376;DHT22;34178;50.904;11.560;2022-12-18T10:50:33;-8.60;99.90
48376;DHT22;34178;50.904;11.560;2022-12-18T23:46:33;-2.70;99.90
48376;DHT22;34178;50.904;11.560;2022-12-18T23:49:01;-2.60;99.90
48376;DHT22;34178;50.904;11.560;2022-12-18T23:51:28;-2.60;99.90
48376;DHT22;34178;50.904;11.560;2022-12-18T23:53:56;-2.60;99.90
48376;DHT22;34178;50.904;11.560;2022-12-18T23:56:22;-2.60;99.90
48376;DHT22;34178;50.904;11.560;2022-12-18T23:58:48;-2.60;99.90
